createdAt,value
2017-10-25T00:00:02.875Z,0.00
2017-10-25T00:01:02.880Z,0.00
2017-10-25T00:02:02.883Z,0.00
2017-10-25T00:03:02.882Z,0.00
2017-10-25T00:04:02.890Z,0.00
2017-10-25T00:05:02.900Z,0.00
2017-10-25T00:06:02.898Z,0.00
2017-10-25T00:07:02.898Z,0.00
2017-10-25T00:08:02.904Z,0.00
2017-10-25T00:09:02.907Z,0.00
2017-10-25T00:10:02.910Z,0.00
2017-10-25T00:11:02.913Z,0.00
2017-10-25T00:12:02.924Z,0.00
2017-10-25T00:13:02.926Z,0.00
2017-10-25T00:14:02.934Z,0.00
2017-10-25T00:15:02.937Z,0.00
2017-10-25T00:16:02.932Z,0.00
2017-10-25T00:17:02.942Z,0.00
2017-10-25T00:18:02.947Z,0.00
2017-10-25T00:19:02.950Z,0.00
2017-10-25T00:20:02.953Z,0.00
2017-10-25T00:21:02.960Z,0.00
2017-10-25T00:22:02.958Z,0.00
2017-10-25T00:23:02.967Z,0.00
2017-10-25T00:24:02.968Z,0.00
2017-10-25T00:25:02.977Z,0.00
2017-10-25T00:26:02.974Z,0.00
2017-10-25T00:27:02.983Z,0.00
2017-10-25T00:28:02.983Z,0.00
2017-10-25T00:29:02.988Z,0.00
2017-10-25T00:30:02.994Z,0.00
2017-10-25T00:31:03.000Z,0.00
2017-10-25T00:32:03.001Z,0.00
2017-10-25T00:33:03.005Z,0.00
2017-10-25T00:34:03.008Z,0.00
2017-10-25T00:35:03.020Z,0.00
2017-10-25T00:36:03.014Z,0.00
2017-10-25T00:37:03.018Z,0.00
2017-10-25T00:38:03.025Z,0.00
2017-10-25T00:39:03.032Z,0.00
2017-10-25T00:40:03.036Z,0.00
2017-10-25T00:41:03.035Z,0.00
2017-10-25T00:42:03.044Z,0.00
2017-10-25T00:43:03.057Z,0.00
2017-10-25T00:44:03.052Z,0.00
2017-10-25T00:45:03.053Z,0.00
2017-10-25T00:46:03.059Z,0.00
2017-10-25T00:47:03.059Z,0.00
2017-10-25T00:48:03.065Z,0.00
2017-10-25T00:49:03.068Z,0.00
2017-10-25T00:50:03.078Z,0.00
2017-10-25T00:51:03.077Z,0.00
2017-10-25T00:52:03.085Z,0.00
2017-10-25T00:53:03.087Z,0.00
2017-10-25T00:54:03.092Z,0.00
2017-10-25T00:55:03.096Z,0.00
2017-10-25T00:56:03.094Z,0.00
2017-10-25T00:57:03.102Z,0.00
2017-10-25T00:58:03.119Z,0.00
2017-10-25T00:59:03.113Z,0.00
2017-10-25T01:00:03.113Z,0.00
2017-10-25T01:01:03.116Z,0.00
2017-10-25T01:02:03.123Z,0.00
2017-10-25T01:03:03.132Z,0.00
2017-10-25T01:04:03.128Z,0.00
2017-10-25T01:05:03.134Z,0.00
2017-10-25T01:06:03.142Z,0.00
2017-10-25T01:07:03.145Z,0.00
2017-10-25T01:08:03.147Z,0.00
2017-10-25T01:09:03.150Z,0.00
2017-10-25T01:10:03.155Z,0.00
2017-10-25T01:11:03.162Z,0.00
2017-10-25T01:12:03.163Z,0.00
2017-10-25T01:13:03.170Z,0.00
2017-10-25T01:14:03.177Z,0.00
2017-10-25T01:15:03.178Z,0.00
2017-10-25T01:16:03.187Z,0.00
2017-10-25T01:17:03.187Z,0.00
2017-10-25T01:18:03.195Z,0.00
2017-10-25T01:19:03.198Z,0.00
2017-10-25T01:20:03.211Z,0.00
2017-10-25T01:21:03.204Z,0.00
2017-10-25T01:22:03.210Z,0.00
2017-10-25T01:23:03.212Z,0.00
2017-10-25T01:24:03.216Z,0.00
2017-10-25T01:25:03.221Z,0.00
2017-10-25T01:26:03.220Z,0.00
2017-10-25T01:27:03.228Z,0.00
2017-10-25T01:28:03.235Z,0.00
2017-10-25T01:29:03.235Z,0.00
2017-10-25T01:30:03.244Z,0.00
2017-10-25T01:31:03.250Z,0.00
2017-10-25T01:32:03.245Z,0.00
2017-10-25T01:33:03.254Z,0.00
2017-10-25T01:34:03.264Z,0.00
2017-10-25T01:35:03.268Z,0.00
2017-10-25T01:36:03.266Z,0.00
2017-10-25T01:37:03.275Z,0.00
2017-10-25T01:38:03.274Z,0.00
2017-10-25T01:39:03.281Z,0.00
2017-10-25T01:40:03.299Z,0.00
2017-10-25T01:41:03.285Z,0.00
2017-10-25T01:42:03.293Z,0.00
2017-10-25T01:43:03.294Z,0.00
2017-10-25T01:44:03.301Z,0.00
2017-10-25T01:45:03.305Z,0.00
2017-10-25T01:46:03.310Z,0.00
2017-10-25T01:47:03.312Z,0.00
2017-10-25T01:48:03.315Z,0.00
2017-10-25T01:49:03.321Z,0.00
2017-10-25T01:50:03.323Z,0.00
2017-10-25T01:51:03.330Z,0.00
2017-10-25T01:52:03.334Z,0.00
2017-10-25T01:53:03.345Z,0.00
2017-10-25T01:54:03.346Z,0.00
2017-10-25T01:55:03.350Z,0.00
2017-10-25T01:56:03.354Z,0.00
2017-10-25T01:57:03.355Z,0.00
2017-10-25T01:58:03.362Z,0.00
2017-10-25T01:59:03.375Z,0.00
2017-10-25T02:00:03.377Z,0.00
2017-10-25T02:01:03.375Z,0.00
2017-10-25T02:02:03.404Z,0.00
2017-10-25T02:03:03.380Z,0.00
2017-10-25T02:04:03.384Z,0.00
2017-10-25T02:05:03.406Z,0.00
2017-10-25T02:06:03.396Z,0.00
2017-10-25T02:07:03.399Z,0.00
2017-10-25T02:08:03.403Z,0.00
2017-10-25T02:09:03.406Z,0.00
2017-10-25T02:10:03.415Z,0.00
2017-10-25T02:11:03.414Z,0.00
2017-10-25T02:12:03.422Z,0.00
2017-10-25T02:13:03.423Z,0.00
2017-10-25T02:14:03.430Z,0.00
2017-10-25T02:15:03.435Z,0.00
2017-10-25T02:16:03.439Z,0.00
2017-10-25T02:17:03.454Z,0.00
2017-10-25T02:18:03.454Z,0.00
2017-10-25T02:19:03.449Z,0.00
2017-10-25T02:20:03.508Z,0.00
2017-10-25T02:21:03.472Z,0.00
2017-10-25T02:22:03.471Z,0.00
2017-10-25T02:23:03.465Z,0.00
2017-10-25T02:24:03.473Z,0.00
2017-10-25T02:25:03.473Z,0.00
2017-10-25T02:26:03.481Z,0.00
2017-10-25T02:27:03.487Z,0.00
2017-10-25T02:28:03.489Z,0.00
2017-10-25T02:29:03.493Z,0.00
2017-10-25T02:30:03.500Z,0.00
2017-10-25T02:31:03.500Z,0.00
2017-10-25T02:32:03.504Z,0.00
2017-10-25T02:33:03.506Z,0.00
2017-10-25T02:34:03.515Z,0.00
2017-10-25T02:35:03.517Z,0.00
2017-10-25T02:36:03.525Z,0.00
2017-10-25T02:37:03.523Z,0.00
2017-10-25T02:38:03.537Z,0.00
2017-10-25T02:39:03.552Z,0.00
2017-10-25T02:40:03.557Z,0.00
2017-10-25T02:41:03.587Z,0.00
2017-10-25T02:42:03.547Z,0.00
2017-10-25T02:43:03.552Z,0.00
2017-10-25T02:44:03.562Z,0.00
2017-10-25T02:45:03.566Z,0.00
2017-10-25T02:46:03.567Z,0.00
2017-10-25T02:47:03.574Z,0.00
2017-10-25T02:48:03.580Z,0.00
2017-10-25T02:49:03.581Z,0.00
2017-10-25T02:50:03.581Z,0.00
2017-10-25T02:51:03.592Z,0.00
2017-10-25T02:52:03.590Z,0.00
2017-10-25T02:53:03.595Z,0.00
2017-10-25T02:54:03.600Z,0.00
2017-10-25T02:55:03.602Z,0.00
2017-10-25T02:56:03.607Z,0.00
2017-10-25T02:57:03.610Z,0.00
2017-10-25T02:58:03.617Z,0.00
2017-10-25T02:59:03.624Z,0.00
2017-10-25T03:00:03.626Z,0.00
2017-10-25T03:01:03.628Z,0.00
2017-10-25T03:02:03.634Z,0.00
2017-10-25T03:03:03.636Z,0.00
2017-10-25T03:04:03.647Z,0.00
2017-10-25T03:05:03.650Z,0.00
2017-10-25T03:06:03.695Z,0.00
2017-10-25T03:07:03.658Z,0.00
2017-10-25T03:08:03.663Z,0.00
2017-10-25T03:09:03.660Z,0.00
2017-10-25T03:10:03.667Z,0.00
2017-10-25T03:11:03.669Z,0.00
2017-10-25T03:12:03.679Z,0.00
2017-10-25T03:13:03.697Z,0.00
2017-10-25T03:14:03.681Z,0.00
2017-10-25T03:15:03.686Z,0.00
2017-10-25T03:16:03.693Z,0.00
2017-10-25T03:17:03.703Z,0.00
2017-10-25T03:18:03.703Z,0.00
2017-10-25T03:19:03.704Z,0.00
2017-10-25T03:20:03.721Z,0.00
2017-10-25T03:21:03.715Z,0.00
2017-10-25T03:22:03.717Z,0.00
2017-10-25T03:23:03.721Z,0.00
2017-10-25T03:24:03.724Z,0.00
2017-10-25T03:25:03.736Z,0.00
2017-10-25T03:26:03.739Z,0.00
2017-10-25T03:27:03.744Z,0.00
2017-10-25T03:28:03.741Z,0.00
2017-10-25T03:29:03.759Z,0.00
2017-10-25T03:30:03.751Z,0.00
2017-10-25T03:31:03.761Z,0.00
2017-10-25T03:32:03.767Z,0.00
2017-10-25T03:33:03.765Z,0.00
2017-10-25T03:34:03.774Z,0.00
2017-10-25T03:35:03.773Z,0.00
2017-10-25T03:36:03.783Z,0.00
2017-10-25T03:37:03.785Z,0.00
2017-10-25T03:38:03.795Z,0.00
2017-10-25T03:39:03.808Z,0.00
2017-10-25T03:40:03.793Z,0.00
2017-10-25T03:41:03.808Z,0.00
2017-10-25T03:42:03.805Z,0.00
2017-10-25T03:43:03.809Z,0.00
2017-10-25T03:44:03.813Z,0.00
2017-10-25T03:45:03.816Z,0.00
2017-10-25T03:46:03.817Z,0.00
2017-10-25T03:47:03.833Z,0.00
2017-10-25T03:48:03.831Z,0.00
2017-10-25T03:49:03.833Z,0.00
2017-10-25T03:50:03.842Z,0.00
2017-10-25T03:51:03.842Z,0.00
2017-10-25T03:52:03.845Z,0.00
2017-10-25T03:53:03.852Z,0.00
2017-10-25T03:54:03.855Z,0.00
2017-10-25T03:55:03.860Z,0.00
2017-10-25T03:56:03.871Z,0.00
2017-10-25T03:57:03.867Z,0.00
2017-10-25T03:58:03.875Z,0.00
2017-10-25T03:59:03.876Z,0.00
2017-10-25T04:00:03.891Z,0.00
2017-10-25T04:01:03.883Z,0.00
2017-10-25T04:02:03.893Z,0.00
2017-10-25T04:03:03.888Z,0.00
2017-10-25T04:04:03.915Z,0.00
2017-10-25T04:05:03.901Z,0.00
2017-10-25T04:06:03.903Z,0.00
2017-10-25T04:07:03.911Z,0.00
2017-10-25T04:08:03.915Z,0.00
2017-10-25T04:09:03.919Z,0.00
2017-10-25T04:10:03.925Z,0.00
2017-10-25T04:11:03.930Z,0.00
2017-10-25T04:12:03.946Z,0.00
2017-10-25T04:13:03.936Z,0.00
2017-10-25T04:14:03.945Z,0.00
2017-10-25T04:15:03.944Z,0.00
2017-10-25T04:16:03.951Z,0.00
2017-10-25T04:17:03.950Z,0.00
2017-10-25T04:18:03.954Z,0.00
2017-10-25T04:19:03.961Z,0.00
2017-10-25T04:20:03.963Z,0.00
2017-10-25T04:21:03.970Z,0.00
2017-10-25T04:22:03.978Z,0.00
2017-10-25T04:23:03.978Z,0.00
2017-10-25T04:24:03.983Z,0.00
2017-10-25T04:25:03.986Z,0.00
2017-10-25T04:26:03.990Z,0.00
2017-10-25T04:27:03.995Z,0.00
2017-10-25T04:28:04.010Z,0.00
2017-10-25T04:29:04.002Z,0.00
2017-10-25T04:30:04.013Z,0.00
2017-10-25T04:31:04.017Z,0.00
2017-10-25T04:32:04.018Z,0.00
2017-10-25T04:33:04.021Z,0.00
2017-10-25T04:34:04.027Z,0.00
2017-10-25T04:35:04.030Z,0.00
2017-10-25T04:36:04.039Z,0.00
2017-10-25T04:37:04.042Z,0.00
2017-10-25T04:38:04.046Z,0.00
2017-10-25T04:39:04.048Z,0.00
2017-10-25T04:40:04.062Z,0.00
2017-10-25T04:41:04.054Z,0.00
2017-10-25T04:42:04.062Z,0.00
2017-10-25T04:43:04.061Z,0.00
2017-10-25T04:44:04.067Z,0.00
2017-10-25T04:45:04.071Z,0.00
2017-10-25T04:46:04.078Z,0.00
2017-10-25T04:47:04.082Z,0.00
2017-10-25T04:48:04.092Z,0.00
2017-10-25T04:49:04.092Z,0.00
2017-10-25T04:50:04.096Z,0.00
2017-10-25T04:51:04.094Z,0.00
2017-10-25T04:52:04.105Z,0.00
2017-10-25T04:53:04.106Z,0.00
2017-10-25T04:54:04.116Z,0.00
2017-10-25T04:55:04.113Z,0.00
2017-10-25T04:56:04.119Z,0.00
2017-10-25T04:57:04.123Z,0.00
2017-10-25T04:58:04.144Z,0.00
2017-10-25T04:59:04.130Z,0.00
2017-10-25T05:00:04.138Z,0.00
2017-10-25T05:01:04.137Z,0.00
2017-10-25T05:02:04.143Z,0.00
2017-10-25T05:03:04.144Z,0.00
2017-10-25T05:04:04.148Z,0.00
2017-10-25T05:05:04.154Z,0.00
2017-10-25T05:06:04.164Z,0.00
2017-10-25T05:07:04.164Z,0.00
2017-10-25T05:08:04.171Z,0.00
2017-10-25T05:09:04.177Z,0.00
2017-10-25T05:10:04.177Z,0.00
2017-10-25T05:11:04.182Z,0.00
2017-10-25T05:12:04.183Z,0.00
2017-10-25T05:13:04.188Z,0.00
2017-10-25T05:14:04.194Z,0.00
2017-10-25T05:15:04.197Z,0.00
2017-10-25T05:16:04.203Z,0.00
2017-10-25T05:17:04.211Z,0.00
2017-10-25T05:18:04.210Z,0.00
2017-10-25T05:19:04.215Z,0.00
2017-10-25T05:20:04.234Z,0.00
2017-10-25T05:21:04.221Z,0.00
2017-10-25T05:22:04.228Z,0.00
2017-10-25T05:23:04.234Z,0.00
2017-10-25T05:24:04.232Z,0.00
2017-10-25T05:25:04.241Z,0.00
2017-10-25T05:26:04.245Z,0.00
2017-10-25T05:27:04.254Z,0.00
2017-10-25T05:28:04.248Z,0.00
2017-10-25T05:29:04.255Z,0.00
2017-10-25T05:30:04.269Z,0.00
2017-10-25T05:31:04.264Z,0.00
2017-10-25T05:32:04.269Z,0.00
2017-10-25T05:33:04.275Z,0.00
2017-10-25T05:34:04.275Z,0.00
2017-10-25T05:35:04.282Z,0.00
2017-10-25T05:36:04.282Z,0.00
2017-10-25T05:37:04.291Z,0.00
2017-10-25T05:38:04.290Z,0.00
2017-10-25T05:39:04.293Z,0.00
2017-10-25T05:40:04.303Z,0.00
2017-10-25T05:41:04.304Z,0.00
2017-10-25T05:42:04.306Z,0.00
2017-10-25T05:43:04.310Z,0.00
2017-10-25T05:44:04.312Z,0.00
2017-10-25T05:45:04.330Z,0.00
2017-10-25T05:46:04.322Z,0.00
2017-10-25T05:47:04.333Z,0.00
2017-10-25T05:48:04.333Z,4.00
2017-10-25T05:49:04.333Z,0.00
2017-10-25T05:50:04.336Z,4.00
2017-10-25T05:51:04.341Z,4.00
2017-10-25T05:52:04.348Z,8.00
2017-10-25T05:53:04.350Z,8.00
2017-10-25T05:54:04.353Z,8.00
2017-10-25T05:55:04.355Z,8.00
2017-10-25T05:56:04.361Z,8.00
2017-10-25T05:57:04.363Z,4.00
2017-10-25T05:58:04.374Z,8.00
2017-10-25T05:59:04.370Z,12.00
2017-10-25T06:00:04.381Z,12.00
2017-10-25T06:01:04.377Z,12.00
2017-10-25T06:02:04.383Z,12.00
2017-10-25T06:03:04.393Z,12.00
2017-10-25T06:04:04.390Z,16.00
2017-10-25T06:05:04.435Z,28.00
2017-10-25T06:06:04.405Z,40.00
2017-10-25T06:07:04.409Z,36.00
2017-10-25T06:08:04.592Z,40.00
2017-10-25T06:09:04.412Z,36.00
2017-10-25T06:10:04.418Z,36.00
2017-10-25T06:11:04.417Z,36.00
2017-10-25T06:12:04.423Z,28.00
2017-10-25T06:13:04.434Z,20.00
2017-10-25T06:14:04.432Z,20.00
2017-10-25T06:15:04.464Z,24.00
2017-10-25T06:16:04.463Z,24.00
2017-10-25T06:17:04.452Z,24.00
2017-10-25T06:18:04.462Z,24.00
2017-10-25T06:19:04.476Z,24.00
2017-10-25T06:20:04.463Z,20.00
2017-10-25T06:21:04.479Z,24.00
2017-10-25T06:22:04.475Z,44.00
2017-10-25T06:23:04.477Z,84.00
2017-10-25T06:24:04.479Z,112.00
2017-10-25T06:25:04.478Z,124.00
2017-10-25T06:26:04.489Z,148.00
2017-10-25T06:27:04.481Z,168.00
2017-10-25T06:28:04.483Z,188.00
2017-10-25T06:29:04.488Z,208.00
2017-10-25T06:30:04.495Z,220.00
2017-10-25T06:31:04.502Z,236.00
2017-10-25T06:32:04.502Z,256.00
2017-10-25T06:33:04.508Z,280.00
2017-10-25T06:34:04.510Z,296.00
2017-10-25T06:35:04.515Z,312.00
2017-10-25T06:36:04.521Z,320.00
2017-10-25T06:37:04.525Z,324.00
2017-10-25T06:38:04.527Z,304.00
2017-10-25T06:39:04.528Z,316.00
2017-10-25T06:40:04.534Z,324.00
2017-10-25T06:41:04.535Z,320.00
2017-10-25T06:42:04.548Z,320.00
2017-10-25T06:43:04.544Z,308.00
2017-10-25T06:44:04.554Z,244.00
2017-10-25T06:45:04.552Z,192.00
2017-10-25T06:46:04.562Z,244.00
2017-10-25T06:47:04.558Z,340.00
2017-10-25T06:48:04.572Z,532.00
2017-10-25T06:49:04.570Z,596.00
2017-10-25T06:50:04.572Z,624.00
2017-10-25T06:51:04.580Z,632.00
2017-10-25T06:52:04.581Z,656.00
2017-10-25T06:53:04.585Z,672.00
2017-10-25T06:54:04.585Z,684.00
2017-10-25T06:55:04.593Z,692.00
2017-10-25T06:56:04.594Z,708.00
2017-10-25T06:57:04.598Z,728.00
2017-10-25T06:58:04.604Z,740.00
2017-10-25T06:59:04.610Z,732.00
2017-10-25T07:00:04.609Z,728.00
2017-10-25T07:01:04.612Z,700.00
2017-10-25T07:02:04.621Z,680.00
2017-10-25T07:03:04.622Z,672.00
2017-10-25T07:04:04.629Z,660.00
2017-10-25T07:05:04.633Z,624.00
2017-10-25T07:06:04.655Z,628.00
2017-10-25T07:07:04.638Z,612.00
2017-10-25T07:08:04.645Z,604.00
2017-10-25T07:09:07.168Z,612.00
2017-10-25T07:10:04.652Z,604.00
2017-10-25T07:11:04.651Z,624.00
2017-10-25T07:12:04.656Z,644.00
2017-10-25T07:13:04.662Z,632.00
2017-10-25T07:14:04.664Z,576.00
2017-10-25T07:15:04.667Z,512.00
2017-10-25T07:16:04.672Z,436.00
2017-10-25T07:17:04.682Z,400.00
2017-10-25T07:18:04.680Z,368.00
2017-10-25T07:19:04.690Z,336.00
2017-10-25T07:20:04.687Z,268.00
2017-10-25T07:21:04.695Z,208.00
2017-10-25T07:22:04.698Z,160.00
2017-10-25T07:23:04.712Z,224.00
2017-10-25T07:24:04.704Z,388.00
2017-10-25T07:25:04.714Z,484.00
2017-10-25T07:26:04.714Z,576.00
2017-10-25T07:27:04.714Z,676.00
2017-10-25T07:28:04.720Z,572.00
2017-10-25T07:29:04.731Z,440.00
2017-10-25T07:30:04.730Z,396.00
2017-10-25T07:31:04.731Z,384.00
2017-10-25T07:32:04.732Z,436.00
2017-10-25T07:33:04.751Z,468.00
2017-10-25T07:34:04.739Z,460.00
2017-10-25T07:35:04.752Z,440.00
2017-10-25T07:36:04.749Z,512.00
2017-10-25T07:37:04.753Z,500.00
2017-10-25T07:38:04.764Z,564.00
2017-10-25T07:39:04.769Z,712.00
2017-10-25T07:40:04.764Z,820.00
2017-10-25T07:41:04.774Z,828.00
2017-10-25T07:42:04.779Z,900.00
2017-10-25T07:43:04.777Z,1040.00
2017-10-25T07:44:04.776Z,964.00
2017-10-25T07:45:04.781Z,976.00
2017-10-25T07:46:04.793Z,896.00
2017-10-25T07:47:05.756Z,856.00
2017-10-25T07:48:04.797Z,1044.00
2017-10-25T07:49:04.802Z,1216.00
2017-10-25T07:50:04.809Z,1248.00
2017-10-25T07:51:04.804Z,1144.00
2017-10-25T07:52:04.812Z,1120.00
2017-10-25T07:53:04.815Z,1228.00
2017-10-25T07:54:04.820Z,1228.00
2017-10-25T07:55:04.820Z,1284.00
2017-10-25T07:56:04.824Z,1276.00
2017-10-25T07:57:04.833Z,1348.00
2017-10-25T07:58:04.835Z,1252.00
2017-10-25T07:59:04.840Z,1476.00
2017-10-25T08:00:04.849Z,1544.00
2017-10-25T08:01:04.847Z,1400.00
2017-10-25T08:02:04.853Z,1228.00
2017-10-25T08:03:04.852Z,1220.00
2017-10-25T08:04:04.853Z,1592.00
2017-10-25T08:05:04.860Z,1804.00
2017-10-25T08:06:04.868Z,1896.00
2017-10-25T08:07:04.868Z,1868.00
2017-10-25T08:08:04.872Z,1860.00
2017-10-25T08:09:04.878Z,1880.00
2017-10-25T08:10:04.881Z,2028.00
2017-10-25T08:11:04.886Z,2104.00
2017-10-25T08:12:04.897Z,2140.00
2017-10-25T08:13:04.900Z,2104.00
2017-10-25T08:14:04.901Z,2124.00
2017-10-25T08:15:04.902Z,2076.00
2017-10-25T08:16:04.902Z,2120.00
2017-10-25T08:17:04.907Z,2112.00
2017-10-25T08:18:04.912Z,2080.00
2017-10-25T08:19:04.914Z,2000.00
2017-10-25T08:20:04.919Z,2012.00
2017-10-25T08:21:04.923Z,2016.00
2017-10-25T08:22:04.928Z,1980.00
2017-10-25T08:23:04.934Z,2112.00
2017-10-25T08:24:04.944Z,2048.00
2017-10-25T08:25:04.942Z,1988.00
2017-10-25T08:26:04.944Z,2012.00
2017-10-25T08:27:04.944Z,2060.00
2017-10-25T08:28:04.948Z,2128.00
2017-10-25T08:29:04.961Z,2092.00
2017-10-25T08:30:04.961Z,1860.00
2017-10-25T08:31:04.971Z,1728.00
2017-10-25T08:32:04.968Z,1712.00
2017-10-25T08:33:04.974Z,1424.00
2017-10-25T08:34:04.989Z,1120.00
2017-10-25T08:35:04.999Z,1076.00
2017-10-25T08:36:04.991Z,928.00
2017-10-25T08:37:04.994Z,752.00
2017-10-25T08:38:05.009Z,724.00
2017-10-25T08:39:05.012Z,756.00
2017-10-25T08:40:05.001Z,772.00
2017-10-25T08:41:05.003Z,760.00
2017-10-25T08:42:05.010Z,856.00
2017-10-25T08:43:05.019Z,1020.00
2017-10-25T08:44:05.021Z,1260.00
2017-10-25T08:45:05.019Z,1488.00
2017-10-25T08:46:05.035Z,1692.00
2017-10-25T08:47:05.031Z,1764.00
2017-10-25T08:48:05.033Z,1496.00
2017-10-25T08:49:05.048Z,1672.00
2017-10-25T08:50:05.042Z,2172.00
2017-10-25T08:51:05.049Z,2376.00
2017-10-25T08:52:05.053Z,2600.00
2017-10-25T08:53:05.059Z,2044.00
2017-10-25T08:54:05.058Z,2020.00
2017-10-25T08:55:05.088Z,2384.00
2017-10-25T08:56:05.072Z,2432.00
2017-10-25T08:57:05.072Z,2252.00
2017-10-25T08:58:05.072Z,1932.00
2017-10-25T08:59:05.084Z,2068.00
2017-10-25T09:00:05.085Z,1800.00
2017-10-25T09:01:05.093Z,1880.00
2017-10-25T09:02:05.090Z,1540.00
2017-10-25T09:03:05.094Z,1612.00
2017-10-25T09:04:05.098Z,1780.00
2017-10-25T09:05:05.115Z,1792.00
2017-10-25T09:06:05.113Z,2156.00
2017-10-25T09:07:05.114Z,2400.00
2017-10-25T09:08:05.115Z,2160.00
2017-10-25T09:09:05.119Z,2328.00
2017-10-25T09:10:05.123Z,2512.00
2017-10-25T09:11:05.122Z,2936.00
2017-10-25T09:12:05.133Z,2296.00
2017-10-25T09:13:05.134Z,2344.00
2017-10-25T09:14:05.139Z,2504.00
2017-10-25T09:15:05.149Z,2708.00
2017-10-25T09:16:05.155Z,2996.00
2017-10-25T09:17:05.148Z,3220.00
2017-10-25T09:18:05.154Z,3328.00
2017-10-25T09:19:05.159Z,3420.00
2017-10-25T09:20:05.161Z,3504.00
2017-10-25T09:21:05.178Z,3176.00
2017-10-25T09:22:05.178Z,3444.00
2017-10-25T09:23:05.173Z,3184.00
2017-10-25T09:24:05.182Z,3308.00
2017-10-25T09:25:05.183Z,3456.00
2017-10-25T09:26:05.191Z,3400.00
2017-10-25T09:27:05.192Z,3576.00
2017-10-25T09:28:05.199Z,3480.00
2017-10-25T09:29:05.201Z,4236.00
2017-10-25T09:30:05.203Z,3400.00
2017-10-25T09:31:05.207Z,3440.00
2017-10-25T09:32:05.214Z,3776.00
2017-10-25T09:33:05.217Z,3164.00
2017-10-25T09:34:05.227Z,3848.00
2017-10-25T09:35:05.228Z,3120.00
2017-10-25T09:36:05.229Z,4136.00
2017-10-25T09:37:05.233Z,4088.00
2017-10-25T09:38:05.319Z,3888.00
2017-10-25T09:39:05.242Z,2972.00
2017-10-25T09:40:05.248Z,2968.00
2017-10-25T09:41:05.254Z,2924.00
2017-10-25T09:42:05.255Z,2856.00
2017-10-25T09:43:05.258Z,2680.00
2017-10-25T09:44:05.266Z,2560.00
2017-10-25T09:45:05.267Z,2536.00
2017-10-25T09:46:05.274Z,3716.00
2017-10-25T09:47:05.276Z,2752.00
2017-10-25T09:48:05.285Z,2776.00
2017-10-25T09:49:05.287Z,2720.00
2017-10-25T09:50:05.292Z,2724.00
2017-10-25T09:51:05.292Z,2708.00
2017-10-25T09:52:05.302Z,2880.00
2017-10-25T09:53:05.302Z,2860.00
2017-10-25T09:54:05.303Z,2928.00
2017-10-25T09:55:05.314Z,2908.00
2017-10-25T09:56:05.315Z,2912.00
2017-10-25T09:57:05.316Z,2828.00
2017-10-25T09:58:05.328Z,2728.00
2017-10-25T09:59:05.334Z,2512.00
2017-10-25T10:00:05.347Z,2444.00
2017-10-25T10:01:05.342Z,2680.00
2017-10-25T10:02:05.342Z,2824.00
2017-10-25T10:03:05.343Z,2892.00
2017-10-25T10:04:05.346Z,2868.00
2017-10-25T10:05:05.351Z,3144.00
2017-10-25T10:06:05.355Z,3364.00
2017-10-25T10:07:05.360Z,4632.00
2017-10-25T10:08:05.363Z,4040.00
2017-10-25T10:09:05.376Z,4540.00
2017-10-25T10:10:05.376Z,4632.00
2017-10-25T10:11:05.385Z,3940.00
2017-10-25T10:12:05.386Z,3776.00
2017-10-25T10:13:05.387Z,3744.00
2017-10-25T10:14:05.393Z,3728.00
2017-10-25T10:15:05.395Z,3764.00
2017-10-25T10:16:05.402Z,3796.00
2017-10-25T10:17:05.404Z,3908.00
2017-10-25T10:18:05.416Z,3960.00
2017-10-25T10:19:05.413Z,3692.00
2017-10-25T10:20:05.421Z,3540.00
2017-10-25T10:21:05.423Z,3384.00
2017-10-25T10:22:05.427Z,3212.00
2017-10-25T10:23:05.441Z,3060.00
2017-10-25T10:24:05.434Z,2712.00
2017-10-25T10:25:05.442Z,2236.00
2017-10-25T10:26:05.452Z,1972.00
2017-10-25T10:27:05.450Z,1948.00
2017-10-25T10:28:05.450Z,1896.00
2017-10-25T10:29:05.468Z,1820.00
2017-10-25T10:30:05.460Z,1736.00
2017-10-25T10:31:05.469Z,1552.00
2017-10-25T10:32:05.469Z,1420.00
2017-10-25T10:33:05.474Z,1488.00
2017-10-25T10:34:05.478Z,1484.00
2017-10-25T10:35:05.483Z,1636.00
2017-10-25T10:36:05.487Z,1648.00
2017-10-25T10:37:05.494Z,1692.00
2017-10-25T10:38:05.494Z,1768.00
2017-10-25T10:39:05.503Z,1624.00
2017-10-25T10:40:05.502Z,1264.00
2017-10-25T10:41:05.509Z,1100.00
2017-10-25T10:42:05.513Z,1308.00
2017-10-25T10:43:05.521Z,1556.00
2017-10-25T10:44:05.522Z,1588.00
2017-10-25T10:45:05.532Z,1576.00
2017-10-25T10:46:05.535Z,1496.00
2017-10-25T10:47:05.534Z,1276.00
2017-10-25T10:48:05.539Z,1396.00
2017-10-25T10:49:05.554Z,1364.00
2017-10-25T10:50:05.553Z,1608.00
2017-10-25T10:51:05.564Z,1640.00
2017-10-25T10:52:05.560Z,1420.00
2017-10-25T10:53:05.564Z,1532.00
2017-10-25T10:54:05.564Z,1832.00
2017-10-25T10:55:05.568Z,1788.00
2017-10-25T10:56:05.571Z,1664.00
2017-10-25T10:57:05.578Z,1436.00
2017-10-25T10:58:05.580Z,1260.00
2017-10-25T10:59:05.589Z,1228.00
2017-10-25T11:00:05.587Z,1376.00
2017-10-25T11:01:05.593Z,1632.00
2017-10-25T11:02:05.594Z,1560.00
2017-10-25T11:03:05.605Z,1424.00
2017-10-25T11:04:05.608Z,1544.00
2017-10-25T11:05:05.617Z,1704.00
2017-10-25T11:06:05.625Z,2012.00
2017-10-25T11:07:05.625Z,1856.00
2017-10-25T11:08:05.626Z,1468.00
2017-10-25T11:09:05.632Z,1640.00
2017-10-25T11:10:05.641Z,1516.00
2017-10-25T11:11:05.634Z,1248.00
2017-10-25T11:12:05.634Z,1244.00
2017-10-25T11:13:05.644Z,1268.00
2017-10-25T11:14:05.647Z,1552.00
2017-10-25T11:15:05.649Z,1428.00
2017-10-25T11:16:05.652Z,1632.00
2017-10-25T11:17:05.665Z,1524.00
2017-10-25T11:18:05.664Z,1664.00
2017-10-25T11:19:05.666Z,1508.00
2017-10-25T11:20:05.677Z,1848.00
2017-10-25T11:21:05.685Z,1888.00
2017-10-25T11:22:05.680Z,1784.00
2017-10-25T11:23:05.723Z,2048.00
2017-10-25T11:24:05.686Z,2248.00
2017-10-25T11:25:05.705Z,2384.00
2017-10-25T11:26:05.694Z,2468.00
2017-10-25T11:27:05.704Z,2196.00
2017-10-25T11:28:05.710Z,2372.00
2017-10-25T11:29:05.726Z,2684.00
2017-10-25T11:30:05.717Z,2528.00
2017-10-25T11:31:05.714Z,2244.00
2017-10-25T11:32:05.724Z,2340.00
2017-10-25T11:33:05.724Z,2616.00
2017-10-25T11:34:05.730Z,2164.00
2017-10-25T11:35:05.730Z,1784.00
2017-10-25T11:36:05.737Z,1848.00
2017-10-25T11:37:05.742Z,2016.00
2017-10-25T11:38:05.744Z,2532.00
2017-10-25T11:39:05.757Z,2384.00
2017-10-25T11:40:05.754Z,1864.00
2017-10-25T11:41:05.763Z,1680.00
2017-10-25T11:42:05.764Z,1692.00
2017-10-25T11:43:05.766Z,2176.00
2017-10-25T11:44:05.772Z,1988.00
2017-10-25T11:45:05.772Z,1848.00
2017-10-25T11:46:05.794Z,2508.00
2017-10-25T11:47:05.783Z,2596.00
2017-10-25T11:48:05.792Z,2244.00
2017-10-25T11:49:05.791Z,1812.00
2017-10-25T11:50:05.800Z,1652.00
2017-10-25T11:51:05.801Z,1304.00
2017-10-25T11:52:05.807Z,1368.00
2017-10-25T11:53:05.809Z,1364.00
2017-10-25T11:54:05.813Z,1228.00
2017-10-25T11:55:05.820Z,1140.00
2017-10-25T11:56:05.825Z,928.00
2017-10-25T11:57:05.831Z,1168.00
2017-10-25T11:58:05.829Z,1360.00
2017-10-25T11:59:05.830Z,1556.00
2017-10-25T12:00:05.849Z,1920.00
2017-10-25T12:01:05.843Z,2056.00
2017-10-25T12:02:05.841Z,1684.00
2017-10-25T12:03:05.852Z,1372.00
2017-10-25T12:04:05.857Z,1708.00
2017-10-25T12:05:05.861Z,1556.00
2017-10-25T12:06:05.860Z,1508.00
2017-10-25T12:07:05.869Z,1780.00
2017-10-25T12:08:05.867Z,1736.00
2017-10-25T12:09:05.875Z,1416.00
2017-10-25T12:10:05.877Z,1512.00
2017-10-25T12:11:05.885Z,1624.00
2017-10-25T12:12:05.890Z,1776.00
2017-10-25T12:13:05.890Z,1840.00
2017-10-25T12:14:05.891Z,1880.00
2017-10-25T12:15:05.899Z,1668.00
2017-10-25T12:16:05.904Z,1392.00
2017-10-25T12:17:05.911Z,1384.00
2017-10-25T12:18:05.914Z,1244.00
2017-10-25T12:19:05.913Z,1096.00
2017-10-25T12:20:05.919Z,1332.00
2017-10-25T12:21:05.918Z,1312.00
2017-10-25T12:22:05.925Z,1352.00
2017-10-25T12:23:05.937Z,1628.00
2017-10-25T12:24:05.934Z,1300.00
2017-10-25T12:25:05.937Z,1312.00
2017-10-25T12:26:05.947Z,1308.00
2017-10-25T12:27:05.949Z,1184.00
2017-10-25T12:28:05.950Z,1180.00
2017-10-25T12:29:05.953Z,1128.00
2017-10-25T12:30:05.956Z,1188.00
2017-10-25T12:31:05.959Z,1200.00
2017-10-25T12:32:05.964Z,1176.00
2017-10-25T12:33:05.989Z,1164.00
2017-10-25T12:34:05.978Z,984.00
2017-10-25T12:35:05.988Z,1208.00
2017-10-25T12:36:05.985Z,1128.00
2017-10-25T12:37:05.983Z,1060.00
2017-10-25T12:38:05.990Z,1052.00
2017-10-25T12:39:05.991Z,1176.00
2017-10-25T12:40:05.995Z,1140.00
2017-10-25T12:41:06.004Z,1244.00
2017-10-25T12:42:06.011Z,1024.00